aviador You're here:

ZYTL Decoded Metar

DALIAN in CHINA
Report Time2018-05-23 16:00:00
UTC Time2018-05-23 16:26:38
Flight Rules vfr VFR
Wind240° at 10 kt
W.Decomp.*RWY 28: 8.5 kt HW 5.3 kt LCW
W.Rank240° ranks 25
Current wind is above 240° avg. (6.7)
Visibility9999 m
Phenomena:N/A
Clouds:N/A
Expected CloudBase > 4,400 ft AGL from Temp-Dew spread
CeilingNone
Temp22°C (ISA +8)
Dew Point11°C (50% RH)
AAT18.7°C
QNH1003 hPa
Density Alt1,722 ft
Elevation318 ft
Report Wrong Elevation
Raw Report
METAR ZYTL 231600Z 24005MPS CAVOK 22/11 Q1003 NOSIG=

Extra information for ZYTL:More info

Metar Taf Metar & Taf Last 4 Metars F.Rules Stats Wind Profile Meteogram Temp Stats Airport Information Weather charts Add Link Nearby VenuesMetar ALERT Operation Metar Decoded Social comments